sensor_id;sensor_type;location;lat;lon;timestamp;P1;durP1;ratioP1;P2;durP2;ratioP2
3293;SDS011;1659;51.470;6.770;2022-09-17T00:02:16;12.13;;;3.10;;
3293;SDS011;1659;51.470;6.770;2022-09-17T00:04:43;8.00;;;3.70;;
3293;SDS011;1659;51.470;6.770;2022-09-17T00:07:09;9.17;;;3.50;;
3293;SDS011;1659;51.470;6.770;2022-09-17T00:09:36;6.80;;;3.00;;
3293;SDS011;1659;51.470;6.770;2022-09-17T00:12:02;14.60;;;4.67;;
3293;SDS011;1659;51.470;6.770;2022-09-17T00:14:29;11.23;;;4.10;;
3293;SDS011;1659;51.470;6.770;2022-09-17T00:16:56;10.00;;;3.50;;
3293;SDS011;1659;51.470;6.770;2022-09-17T00:19:24;12.93;;;4.10;;
3293;SDS011;1659;51.470;6.770;2022-09-17T00:21:50;11.43;;;4.23;;
3293;SDS011;1659;51.470;6.770;2022-09-17T00:24:17;8.93;;;3.77;;
3293;SDS011;1659;51.470;6.770;2022-09-17T00:26:45;9.37;;;3.33;;
3293;SDS011;1659;51.470;6.770;2022-09-17T00:29:14;19.40;;;4.23;;
3293;SDS011;1659;51.470;6.770;2022-09-17T00:31:41;11.10;;;4.03;;
3293;SDS011;1659;51.470;6.770;2022-09-17T00:34:07;11.17;;;4.07;;
3293;SDS011;1659;51.470;6.770;2022-09-17T00:36:37;9.80;;;4.63;;
3293;SDS011;1659;51.470;6.770;2022-09-17T00:39:05;10.60;;;4.33;;
3293;SDS011;1659;51.470;6.770;2022-09-17T00:41:34;10.57;;;5.30;;
3293;SDS011;1659;51.470;6.770;2022-09-17T00:47:07;10.60;;;3.77;;
3293;SDS011;1659;51.470;6.770;2022-09-17T00:49:38;10.93;;;4.33;;
3293;SDS011;1659;51.470;6.770;2022-09-17T00:52:07;10.53;;;4.30;;
3293;SDS011;1659;51.470;6.770;2022-09-17T00:54:36;10.53;;;4.07;;
3293;SDS011;1659;51.470;6.770;2022-09-17T00:57:05;9.13;;;3.23;;
3293;SDS011;1659;51.470;6.770;2022-09-17T00:59:32;12.93;;;3.80;;
3293;SDS011;1659;51.470;6.770;2022-09-17T01:01:58;13.70;;;4.47;;
3293;SDS011;1659;51.470;6.770;2022-09-17T01:04:27;11.73;;;4.43;;
3293;SDS011;1659;51.470;6.770;2022-09-17T01:06:55;13.53;;;3.80;;
3293;SDS011;1659;51.470;6.770;2022-09-17T01:09:32;4.33;;;3.00;;
3293;SDS011;1659;51.470;6.770;2022-09-17T01:12:22;7.57;;;3.60;;
3293;SDS011;1659;51.470;6.770;2022-09-17T01:15:04;13.50;;;4.17;;
3293;SDS011;1659;51.470;6.770;2022-09-17T01:17:42;12.83;;;6.40;;
3293;SDS011;1659;51.470;6.770;2022-09-17T01:23:30;10.80;;;3.83;;
3293;SDS011;1659;51.470;6.770;2022-09-17T01:26:22;8.63;;;3.83;;
3293;SDS011;1659;51.470;6.770;2022-09-17T01:29:08;9.93;;;4.13;;
3293;SDS011;1659;51.470;6.770;2022-09-17T01:31:46;9.93;;;4.13;;
3293;SDS011;1659;51.470;6.770;2022-09-17T01:34:19;19.77;;;4.50;;
3293;SDS011;1659;51.470;6.770;2022-09-17T01:36:59;15.43;;;4.23;;
3293;SDS011;1659;51.470;6.770;2022-09-17T01:39:30;19.23;;;4.40;;
3293;SDS011;1659;51.470;6.770;2022-09-17T01:42:10;14.23;;;4.90;;
3293;SDS011;1659;51.470;6.770;2022-09-17T01:44:44;15.40;;;4.83;;
3293;SDS011;1659;51.470;6.770;2022-09-17T01:47:20;23.20;;;6.20;;
3293;SDS011;1659;51.470;6.770;2022-09-17T01:49:50;13.70;;;4.23;;
3293;SDS011;1659;51.470;6.770;2022-09-17T01:52:20;13.00;;;4.47;;
3293;SDS011;1659;51.470;6.770;2022-09-17T01:54:50;20.67;;;5.30;;
3293;SDS011;1659;51.470;6.770;2022-09-17T01:57:22;12.37;;;5.10;;
3293;SDS011;1659;51.470;6.770;2022-09-17T01:59:54;17.00;;;4.63;;
3293;SDS011;1659;51.470;6.770;2022-09-17T02:02:27;19.27;;;5.00;;
3293;SDS011;1659;51.470;6.770;2022-09-17T02:04:57;9.37;;;4.80;;
3293;SDS011;1659;51.470;6.770;2022-09-17T02:07:27;12.37;;;4.43;;
3293;SDS011;1659;51.470;6.770;2022-09-17T02:09:58;7.07;;;3.03;;
3293;SDS011;1659;51.470;6.770;2022-09-17T02:12:29;16.33;;;3.20;;
3293;SDS011;1659;51.470;6.770;2022-09-17T02:14:59;13.53;;;3.27;;
3293;SDS011;1659;51.470;6.770;2022-09-17T02:17:31;15.73;;;4.53;;
3293;SDS011;1659;51.470;6.770;2022-09-17T02:20:02;14.20;;;3.80;;
3293;SDS011;1659;51.470;6.770;2022-09-17T02:22:32;10.70;;;3.80;;
3293;SDS011;1659;51.470;6.770;2022-09-17T02:25:05;8.83;;;3.53;;
3293;SDS011;1659;51.470;6.770;2022-09-17T02:27:36;7.90;;;4.10;;
3293;SDS011;1659;51.470;6.770;2022-09-17T02:30:13;13.83;;;4.70;;
3293;SDS011;1659;51.470;6.770;2022-09-17T02:32:42;14.13;;;5.43;;
3293;SDS011;1659;51.470;6.770;2022-09-17T02:35:09;15.90;;;4.30;;
3293;SDS011;1659;51.470;6.770;2022-09-17T02:37:37;14.63;;;3.93;;
3293;SDS011;1659;51.470;6.770;2022-09-17T02:40:05;17.60;;;3.90;;
3293;SDS011;1659;51.470;6.770;2022-09-17T02:42:34;15.33;;;3.50;;
3293;SDS011;1659;51.470;6.770;2022-09-17T02:45:14;10.10;;;3.80;;
3293;SDS011;1659;51.470;6.770;2022-09-17T02:47:55;12.37;;;3.70;;
3293;SDS011;1659;51.470;6.770;2022-09-17T02:50:35;11.13;;;4.30;;
3293;SDS011;1659;51.470;6.770;2022-09-17T02:53:26;12.30;;;3.30;;
3293;SDS011;1659;51.470;6.770;2022-09-17T02:56:04;9.80;;;3.43;;
3293;SDS011;1659;51.470;6.770;2022-09-17T02:58:39;8.20;;;3.80;;
3293;SDS011;1659;51.470;6.770;2022-09-17T03:01:13;15.80;;;3.30;;
3293;SDS011;1659;51.470;6.770;2022-09-17T03:03:45;18.80;;;4.23;;
3293;SDS011;1659;51.470;6.770;2022-09-17T03:06:15;13.37;;;5.10;;
3293;SDS011;1659;51.470;6.770;2022-09-17T03:08:42;13.33;;;3.50;;
3293;SDS011;1659;51.470;6.770;2022-09-17T03:11:09;8.13;;;3.00;;
3293;SDS011;1659;51.470;6.770;2022-09-17T03:13:37;10.00;;;3.33;;
3293;SDS011;1659;51.470;6.770;2022-09-17T03:16:04;5.03;;;3.37;;
3293;SDS011;1659;51.470;6.770;2022-09-17T03:18:31;8.90;;;3.47;;
3293;SDS011;1659;51.470;6.770;2022-09-17T03:20:59;10.13;;;3.20;;
3293;SDS011;1659;51.470;6.770;2022-09-17T03:23:25;10.90;;;3.80;;
3293;SDS011;1659;51.470;6.770;2022-09-17T03:25:53;11.47;;;2.90;;
3293;SDS011;1659;51.470;6.770;2022-09-17T03:28:19;9.33;;;3.20;;
3293;SDS011;1659;51.470;6.770;2022-09-17T03:30:46;6.43;;;3.30;;
3293;SDS011;1659;51.470;6.770;2022-09-17T03:33:13;8.43;;;2.77;;
3293;SDS011;1659;51.470;6.770;2022-09-17T03:35:41;7.50;;;3.20;;
3293;SDS011;1659;51.470;6.770;2022-09-17T03:38:09;12.27;;;3.20;;
3293;SDS011;1659;51.470;6.770;2022-09-17T03:40:35;15.70;;;4.53;;
3293;SDS011;1659;51.470;6.770;2022-09-17T03:43:02;18.30;;;5.63;;
3293;SDS011;1659;51.470;6.770;2022-09-17T03:45:30;16.23;;;5.27;;
3293;SDS011;1659;51.470;6.770;2022-09-17T03:47:56;8.07;;;3.53;;
3293;SDS011;1659;51.470;6.770;2022-09-17T03:50:23;9.83;;;3.17;;
3293;SDS011;1659;51.470;6.770;2022-09-17T03:52:50;16.80;;;3.30;;
3293;SDS011;1659;51.470;6.770;2022-09-17T03:55:18;6.30;;;2.83;;
3293;SDS011;1659;51.470;6.770;2022-09-17T03:57:44;12.53;;;2.60;;
3293;SDS011;1659;51.470;6.770;2022-09-17T04:00:11;12.87;;;2.93;;
3293;SDS011;1659;51.470;6.770;2022-09-17T04:02:41;16.43;;;3.17;;
3293;SDS011;1659;51.470;6.770;2022-09-17T04:05:08;14.27;;;3.20;;
3293;SDS011;1659;51.470;6.770;2022-09-17T04:07:35;10.77;;;3.77;;
3293;SDS011;1659;51.470;6.770;2022-09-17T04:10:01;10.47;;;3.00;;
3293;SDS011;1659;51.470;6.770;2022-09-17T04:12:30;11.17;;;3.30;;
3293;SDS011;1659;51.470;6.770;2022-09-17T04:14:57;16.83;;;4.27;;
3293;SDS011;1659;51.470;6.770;2022-09-17T04:17:23;13.87;;;3.37;;
3293;SDS011;1659;51.470;6.770;2022-09-17T04:19:50;8.67;;;3.53;;
3293;SDS011;1659;51.470;6.770;2022-09-17T04:22:17;11.40;;;2.87;;
3293;SDS011;1659;51.470;6.770;2022-09-17T04:24:44;8.90;;;3.20;;
3293;SDS011;1659;51.470;6.770;2022-09-17T04:27:10;9.63;;;3.03;;
3293;SDS011;1659;51.470;6.770;2022-09-17T04:29:38;10.17;;;3.17;;
3293;SDS011;1659;51.470;6.770;2022-09-17T04:32:05;13.23;;;3.47;;
3293;SDS011;1659;51.470;6.770;2022-09-17T04:34:31;16.53;;;4.17;;
3293;SDS011;1659;51.470;6.770;2022-09-17T04:36:58;11.93;;;3.60;;
3293;SDS011;1659;51.470;6.770;2022-09-17T04:39:24;12.13;;;3.13;;
3293;SDS011;1659;51.470;6.770;2022-09-17T04:41:51;6.43;;;3.20;;
3293;SDS011;1659;51.470;6.770;2022-09-17T04:44:18;9.80;;;3.80;;
3293;SDS011;1659;51.470;6.770;2022-09-17T04:46:46;12.90;;;3.10;;
3293;SDS011;1659;51.470;6.770;2022-09-17T04:49:12;11.03;;;2.43;;
3293;SDS011;1659;51.470;6.770;2022-09-17T04:51:39;7.47;;;3.60;;
3293;SDS011;1659;51.470;6.770;2022-09-17T04:54:05;7.03;;;2.97;;
3293;SDS011;1659;51.470;6.770;2022-09-17T04:56:32;21.60;;;3.67;;
3293;SDS011;1659;51.470;6.770;2022-09-17T04:58:59;15.13;;;3.77;;
3293;SDS011;1659;51.470;6.770;2022-09-17T05:01:25;7.10;;;3.83;;
3293;SDS011;1659;51.470;6.770;2022-09-17T05:03:53;10.93;;;3.90;;
3293;SDS011;1659;51.470;6.770;2022-09-17T05:06:20;11.27;;;5.03;;
3293;SDS011;1659;51.470;6.770;2022-09-17T05:08:46;14.33;;;5.33;;
3293;SDS011;1659;51.470;6.770;2022-09-17T05:11:13;12.60;;;4.90;;
3293;SDS011;1659;51.470;6.770;2022-09-17T05:13:39;13.97;;;4.83;;
3293;SDS011;1659;51.470;6.770;2022-09-17T05:16:05;21.77;;;4.43;;
3293;SDS011;1659;51.470;6.770;2022-09-17T05:18:32;8.07;;;4.20;;
3293;SDS011;1659;51.470;6.770;2022-09-17T05:21:00;11.93;;;4.23;;
3293;SDS011;1659;51.470;6.770;2022-09-17T05:23:26;8.10;;;3.67;;
3293;SDS011;1659;51.470;6.770;2022-09-17T05:25:56;12.53;;;3.47;;
3293;SDS011;1659;51.470;6.770;2022-09-17T05:28:23;16.57;;;3.60;;
3293;SDS011;1659;51.470;6.770;2022-09-17T05:30:49;16.93;;;4.27;;
3293;SDS011;1659;51.470;6.770;2022-09-17T05:33:16;14.53;;;3.80;;
3293;SDS011;1659;51.470;6.770;2022-09-17T05:35:43;8.00;;;2.73;;
3293;SDS011;1659;51.470;6.770;2022-09-17T05:38:11;12.73;;;3.20;;
3293;SDS011;1659;51.470;6.770;2022-09-17T05:40:38;6.67;;;3.87;;
3293;SDS011;1659;51.470;6.770;2022-09-17T05:43:05;9.67;;;3.43;;
3293;SDS011;1659;51.470;6.770;2022-09-17T05:45:33;9.60;;;3.47;;
3293;SDS011;1659;51.470;6.770;2022-09-17T05:48:00;11.03;;;3.50;;
3293;SDS011;1659;51.470;6.770;2022-09-17T05:50:28;9.80;;;4.30;;
3293;SDS011;1659;51.470;6.770;2022-09-17T05:52:55;16.50;;;3.43;;
3293;SDS011;1659;51.470;6.770;2022-09-17T05:55:23;12.80;;;3.13;;
3293;SDS011;1659;51.470;6.770;2022-09-17T05:57:51;6.50;;;2.70;;
3293;SDS011;1659;51.470;6.770;2022-09-17T06:00:18;7.57;;;2.70;;
3293;SDS011;1659;51.470;6.770;2022-09-17T06:02:44;17.80;;;3.90;;
3293;SDS011;1659;51.470;6.770;2022-09-17T06:05:11;12.10;;;3.30;;
3293;SDS011;1659;51.470;6.770;2022-09-17T06:07:37;12.80;;;2.87;;
3293;SDS011;1659;51.470;6.770;2022-09-17T06:10:05;11.33;;;3.73;;
3293;SDS011;1659;51.470;6.770;2022-09-17T06:12:33;13.33;;;3.70;;
3293;SDS011;1659;51.470;6.770;2022-09-17T06:15:00;11.07;;;3.27;;
3293;SDS011;1659;51.470;6.770;2022-09-17T06:17:27;12.73;;;3.80;;
3293;SDS011;1659;51.470;6.770;2022-09-17T06:19:53;11.13;;;4.13;;
3293;SDS011;1659;51.470;6.770;2022-09-17T06:22:20;14.57;;;5.73;;
3293;SDS011;1659;51.470;6.770;2022-09-17T06:24:47;12.40;;;4.70;;
3293;SDS011;1659;51.470;6.770;2022-09-17T06:27:13;23.83;;;4.40;;
3293;SDS011;1659;51.470;6.770;2022-09-17T06:29:41;15.77;;;4.23;;
3293;SDS011;1659;51.470;6.770;2022-09-17T06:32:08;10.50;;;4.20;;
3293;SDS011;1659;51.470;6.770;2022-09-17T06:34:37;15.37;;;5.17;;
3293;SDS011;1659;51.470;6.770;2022-09-17T06:37:04;9.17;;;3.87;;
3293;SDS011;1659;51.470;6.770;2022-09-17T06:39:31;11.67;;;4.27;;
3293;SDS011;1659;51.470;6.770;2022-09-17T06:41:58;13.40;;;3.77;;
3293;SDS011;1659;51.470;6.770;2022-09-17T06:44:24;14.47;;;3.20;;
3293;SDS011;1659;51.470;6.770;2022-09-17T06:46:52;11.63;;;3.70;;
3293;SDS011;1659;51.470;6.770;2022-09-17T06:49:19;9.97;;;3.27;;
3293;SDS011;1659;51.470;6.770;2022-09-17T06:51:46;9.57;;;3.50;;
3293;SDS011;1659;51.470;6.770;2022-09-17T06:54:12;13.87;;;5.13;;
3293;SDS011;1659;51.470;6.770;2022-09-17T06:56:39;5.00;;;2.87;;
3293;SDS011;1659;51.470;6.770;2022-09-17T06:59:06;11.17;;;3.40;;
3293;SDS011;1659;51.470;6.770;2022-09-17T07:01:32;12.60;;;3.27;;
3293;SDS011;1659;51.470;6.770;2022-09-17T07:04:00;8.63;;;3.50;;
3293;SDS011;1659;51.470;6.770;2022-09-17T07:06:27;8.77;;;2.97;;
3293;SDS011;1659;51.470;6.770;2022-09-17T07:08:53;17.70;;;3.30;;
3293;SDS011;1659;51.470;6.770;2022-09-17T07:11:20;9.10;;;2.70;;
3293;SDS011;1659;51.470;6.770;2022-09-17T07:13:47;7.80;;;3.30;;
3293;SDS011;1659;51.470;6.770;2022-09-17T07:16:13;6.33;;;2.73;;
3293;SDS011;1659;51.470;6.770;2022-09-17T07:18:40;11.03;;;3.00;;
3293;SDS011;1659;51.470;6.770;2022-09-17T07:21:08;8.13;;;3.20;;
3293;SDS011;1659;51.470;6.770;2022-09-17T07:23:35;6.03;;;2.70;;
3293;SDS011;1659;51.470;6.770;2022-09-17T07:26:03;11.93;;;2.87;;
3293;SDS011;1659;51.470;6.770;2022-09-17T07:28:30;14.13;;;2.93;;
3293;SDS011;1659;51.470;6.770;2022-09-17T07:30:57;7.33;;;1.77;;
3293;SDS011;1659;51.470;6.770;2022-09-17T07:33:27;6.03;;;2.60;;
3293;SDS011;1659;51.470;6.770;2022-09-17T07:35:54;3.87;;;2.30;;
3293;SDS011;1659;51.470;6.770;2022-09-17T07:38:23;12.20;;;4.07;;
3293;SDS011;1659;51.470;6.770;2022-09-17T07:40:54;6.00;;;2.00;;
3293;SDS011;1659;51.470;6.770;2022-09-17T07:43:22;7.93;;;2.10;;
3293;SDS011;1659;51.470;6.770;2022-09-17T07:45:49;6.50;;;2.20;;
3293;SDS011;1659;51.470;6.770;2022-09-17T07:48:15;4.07;;;1.83;;
3293;SDS011;1659;51.470;6.770;2022-09-17T07:50:42;11.17;;;2.00;;
3293;SDS011;1659;51.470;6.770;2022-09-17T07:53:08;7.50;;;1.97;;
3293;SDS011;1659;51.470;6.770;2022-09-17T07:55:36;12.27;;;2.67;;
3293;SDS011;1659;51.470;6.770;2022-09-17T07:58:03;6.83;;;2.50;;
3293;SDS011;1659;51.470;6.770;2022-09-17T08:00:30;5.60;;;1.87;;
3293;SDS011;1659;51.470;6.770;2022-09-17T08:02:56;9.80;;;2.70;;
3293;SDS011;1659;51.470;6.770;2022-09-17T08:05:23;4.20;;;2.03;;
3293;SDS011;1659;51.470;6.770;2022-09-17T08:07:50;7.60;;;2.17;;
3293;SDS011;1659;51.470;6.770;2022-09-17T08:10:18;5.27;;;1.80;;
3293;SDS011;1659;51.470;6.770;2022-09-17T08:12:47;13.13;;;1.90;;
3293;SDS011;1659;51.470;6.770;2022-09-17T08:15:14;6.53;;;1.83;;
3293;SDS011;1659;51.470;6.770;2022-09-17T08:17:41;6.93;;;1.70;;
3293;SDS011;1659;51.470;6.770;2022-09-17T08:20:08;6.30;;;2.37;;
3293;SDS011;1659;51.470;6.770;2022-09-17T08:22:35;4.70;;;1.83;;
3293;SDS011;1659;51.470;6.770;2022-09-17T08:25:02;3.37;;;2.27;;
3293;SDS011;1659;51.470;6.770;2022-09-17T08:27:29;6.33;;;2.20;;
3293;SDS011;1659;51.470;6.770;2022-09-17T08:29:57;5.43;;;2.17;;
3293;SDS011;1659;51.470;6.770;2022-09-17T08:32:24;6.50;;;2.17;;
3293;SDS011;1659;51.470;6.770;2022-09-17T08:34:50;6.93;;;2.50;;
3293;SDS011;1659;51.470;6.770;2022-09-17T08:37:18;6.07;;;2.63;;
3293;SDS011;1659;51.470;6.770;2022-09-17T08:39:44;3.70;;;2.30;;
3293;SDS011;1659;51.470;6.770;2022-09-17T08:42:11;3.77;;;1.87;;
3293;SDS011;1659;51.470;6.770;2022-09-17T08:44:45;6.07;;;1.53;;
3293;SDS011;1659;51.470;6.770;2022-09-17T08:47:15;9.13;;;1.83;;
3293;SDS011;1659;51.470;6.770;2022-09-17T08:49:50;2.43;;;1.40;;
3293;SDS011;1659;51.470;6.770;2022-09-17T08:55:29;3.17;;;1.20;;
3293;SDS011;1659;51.470;6.770;2022-09-17T08:58:05;3.30;;;1.13;;
3293;SDS011;1659;51.470;6.770;2022-09-17T09:00:48;1.37;;;0.90;;
3293;SDS011;1659;51.470;6.770;2022-09-17T09:03:24;1.83;;;1.33;;
3293;SDS011;1659;51.470;6.770;2022-09-17T09:05:58;3.17;;;1.37;;
3293;SDS011;1659;51.470;6.770;2022-09-17T09:08:27;2.33;;;1.07;;
3293;SDS011;1659;51.470;6.770;2022-09-17T09:11:00;3.43;;;1.23;;
3293;SDS011;1659;51.470;6.770;2022-09-17T09:13:30;2.13;;;1.70;;
3293;SDS011;1659;51.470;6.770;2022-09-17T09:16:01;4.30;;;1.40;;
3293;SDS011;1659;51.470;6.770;2022-09-17T09:18:34;3.43;;;1.13;;
3293;SDS011;1659;51.470;6.770;2022-09-17T09:21:07;5.07;;;1.80;;
3293;SDS011;1659;51.470;6.770;2022-09-17T09:23:50;5.37;;;1.33;;
3293;SDS011;1659;51.470;6.770;2022-09-17T09:26:21;2.90;;;1.40;;
3293;SDS011;1659;51.470;6.770;2022-09-17T09:28:52;3.73;;;1.17;;
3293;SDS011;1659;51.470;6.770;2022-09-17T09:31:32;3.20;;;1.30;;
3293;SDS011;1659;51.470;6.770;2022-09-17T09:34:08;4.43;;;1.20;;
3293;SDS011;1659;51.470;6.770;2022-09-17T09:36:38;2.70;;;1.00;;
3293;SDS011;1659;51.470;6.770;2022-09-17T09:39:06;4.80;;;1.30;;
3293;SDS011;1659;51.470;6.770;2022-09-17T09:41:42;18.93;;;8.97;;
3293;SDS011;1659;51.470;6.770;2022-09-17T09:44:11;5.13;;;2.03;;
3293;SDS011;1659;51.470;6.770;2022-09-17T09:46:45;6.80;;;3.27;;
3293;SDS011;1659;51.470;6.770;2022-09-17T09:49:27;7.23;;;3.10;;
3293;SDS011;1659;51.470;6.770;2022-09-17T09:52:09;16.13;;;7.40;;
3293;SDS011;1659;51.470;6.770;2022-09-17T09:54:49;3.83;;;2.17;;
3293;SDS011;1659;51.470;6.770;2022-09-17T09:57:31;8.40;;;4.87;;
3293;SDS011;1659;51.470;6.770;2022-09-17T10:00:23;5.37;;;1.33;;
3293;SDS011;1659;51.470;6.770;2022-09-17T10:02:54;3.77;;;2.20;;
3293;SDS011;1659;51.470;6.770;2022-09-17T10:05:27;1.87;;;1.70;;
3293;SDS011;1659;51.470;6.770;2022-09-17T10:07:54;5.30;;;1.73;;
3293;SDS011;1659;51.470;6.770;2022-09-17T10:10:21;7.83;;;1.70;;
3293;SDS011;1659;51.470;6.770;2022-09-17T10:12:47;2.90;;;1.47;;
3293;SDS011;1659;51.470;6.770;2022-09-17T10:15:22;2.50;;;1.60;;
3293;SDS011;1659;51.470;6.770;2022-09-17T10:17:58;8.00;;;3.20;;
3293;SDS011;1659;51.470;6.770;2022-09-17T10:23:24;3.07;;;1.30;;
3293;SDS011;1659;51.470;6.770;2022-09-17T10:25:53;5.07;;;2.53;;
3293;SDS011;1659;51.470;6.770;2022-09-17T10:31:10;6.77;;;2.03;;
3293;SDS011;1659;51.470;6.770;2022-09-17T10:33:49;4.50;;;2.40;;
3293;SDS011;1659;51.470;6.770;2022-09-17T10:36:37;8.30;;;2.20;;
3293;SDS011;1659;51.470;6.770;2022-09-17T10:42:13;6.27;;;2.00;;
3293;SDS011;1659;51.470;6.770;2022-09-17T10:44:49;2.93;;;1.97;;
3293;SDS011;1659;51.470;6.770;2022-09-17T10:47:18;5.30;;;1.27;;
3293;SDS011;1659;51.470;6.770;2022-09-17T10:49:48;9.50;;;2.13;;
3293;SDS011;1659;51.470;6.770;2022-09-17T10:52:22;7.63;;;1.90;;
3293;SDS011;1659;51.470;6.770;2022-09-17T10:57:59;3.70;;;1.53;;
3293;SDS011;1659;51.470;6.770;2022-09-17T11:00:29;3.73;;;1.23;;
3293;SDS011;1659;51.470;6.770;2022-09-17T11:03:21;3.43;;;1.40;;
3293;SDS011;1659;51.470;6.770;2022-09-17T11:06:11;3.90;;;1.67;;
3293;SDS011;1659;51.470;6.770;2022-09-17T11:08:49;6.20;;;1.30;;
3293;SDS011;1659;51.470;6.770;2022-09-17T11:11:28;1.13;;;0.93;;
3293;SDS011;1659;51.470;6.770;2022-09-17T11:14:04;0.60;;;0.60;;
3293;SDS011;1659;51.470;6.770;2022-09-17T11:16:44;3.07;;;1.00;;
3293;SDS011;1659;51.470;6.770;2022-09-17T11:19:20;1.70;;;1.27;;
3293;SDS011;1659;51.470;6.770;2022-09-17T11:21:52;5.30;;;1.33;;
3293;SDS011;1659;51.470;6.770;2022-09-17T11:24:35;2.90;;;1.83;;
3293;SDS011;1659;51.470;6.770;2022-09-17T11:27:17;5.60;;;2.83;;
3293;SDS011;1659;51.470;6.770;2022-09-17T11:32:47;10.00;;;2.63;;
3293;SDS011;1659;51.470;6.770;2022-09-17T11:35:43;8.23;;;3.17;;
3293;SDS011;1659;51.470;6.770;2022-09-17T11:38:13;11.83;;;2.80;;
3293;SDS011;1659;51.470;6.770;2022-09-17T11:40:47;6.43;;;3.90;;
3293;SDS011;1659;51.470;6.770;2022-09-17T11:43:20;8.70;;;4.43;;
3293;SDS011;1659;51.470;6.770;2022-09-17T11:45:55;7.73;;;4.20;;
3293;SDS011;1659;51.470;6.770;2022-09-17T11:48:27;7.63;;;3.50;;
3293;SDS011;1659;51.470;6.770;2022-09-17T11:51:01;6.90;;;2.47;;
3293;SDS011;1659;51.470;6.770;2022-09-17T11:53:39;3.77;;;1.77;;
3293;SDS011;1659;51.470;6.770;2022-09-17T11:56:13;3.70;;;1.57;;
3293;SDS011;1659;51.470;6.770;2022-09-17T11:58:43;4.10;;;1.70;;
3293;SDS011;1659;51.470;6.770;2022-09-17T12:01:14;6.70;;;1.60;;
3293;SDS011;1659;51.470;6.770;2022-09-17T12:03:47;3.50;;;1.30;;
3293;SDS011;1659;51.470;6.770;2022-09-17T12:06:20;3.67;;;1.70;;
3293;SDS011;1659;51.470;6.770;2022-09-17T12:08:54;1.90;;;1.67;;
3293;SDS011;1659;51.470;6.770;2022-09-17T12:11:29;2.53;;;2.00;;
3293;SDS011;1659;51.470;6.770;2022-09-17T12:14:01;3.33;;;2.20;;
3293;SDS011;1659;51.470;6.770;2022-09-17T12:16:31;2.30;;;2.10;;
3293;SDS011;1659;51.470;6.770;2022-09-17T12:19:03;5.10;;;2.60;;
3293;SDS011;1659;51.470;6.770;2022-09-17T12:21:39;2.70;;;2.27;;
3293;SDS011;1659;51.470;6.770;2022-09-17T12:24:11;11.57;;;2.97;;
3293;SDS011;1659;51.470;6.770;2022-09-17T12:26:50;4.23;;;1.77;;
3293;SDS011;1659;51.470;6.770;2022-09-17T12:29:36;2.50;;;1.50;;
3293;SDS011;1659;51.470;6.770;2022-09-17T12:32:18;7.20;;;3.23;;
3293;SDS011;1659;51.470;6.770;2022-09-17T12:35:00;8.63;;;5.23;;
3293;SDS011;1659;51.470;6.770;2022-09-17T12:37:39;11.90;;;4.47;;
3293;SDS011;1659;51.470;6.770;2022-09-17T12:40:14;4.20;;;2.70;;
3293;SDS011;1659;51.470;6.770;2022-09-17T12:42:56;4.87;;;2.60;;
3293;SDS011;1659;51.470;6.770;2022-09-17T12:45:45;2.00;;;1.60;;
3293;SDS011;1659;51.470;6.770;2022-09-17T12:48:34;1.67;;;1.57;;
3293;SDS011;1659;51.470;6.770;2022-09-17T12:51:19;2.50;;;1.50;;
3293;SDS011;1659;51.470;6.770;2022-09-17T12:53:58;2.80;;;1.47;;
3293;SDS011;1659;51.470;6.770;2022-09-17T12:56:40;3.33;;;1.40;;
3293;SDS011;1659;51.470;6.770;2022-09-17T12:59:19;2.03;;;1.20;;
3293;SDS011;1659;51.470;6.770;2022-09-17T13:01:51;3.73;;;1.53;;
3293;SDS011;1659;51.470;6.770;2022-09-17T13:04:31;3.80;;;1.03;;
3293;SDS011;1659;51.470;6.770;2022-09-17T13:07:32;4.10;;;1.30;;
3293;SDS011;1659;51.470;6.770;2022-09-17T13:10:27;2.50;;;1.43;;
3293;SDS011;1659;51.470;6.770;2022-09-17T13:13:08;4.33;;;1.50;;
3293;SDS011;1659;51.470;6.770;2022-09-17T13:15:55;2.00;;;1.60;;
3293;SDS011;1659;51.470;6.770;2022-09-17T13:18:30;6.33;;;2.00;;
3293;SDS011;1659;51.470;6.770;2022-09-17T13:21:03;3.10;;;1.43;;
3293;SDS011;1659;51.470;6.770;2022-09-17T13:23:38;2.67;;;1.60;;
3293;SDS011;1659;51.470;6.770;2022-09-17T13:26:07;2.97;;;1.10;;
3293;SDS011;1659;51.470;6.770;2022-09-17T13:28:39;2.60;;;1.60;;
3293;SDS011;1659;51.470;6.770;2022-09-17T13:31:09;6.90;;;2.03;;
3293;SDS011;1659;51.470;6.770;2022-09-17T13:33:47;3.10;;;1.50;;
3293;SDS011;1659;51.470;6.770;2022-09-17T13:39:32;10.37;;;4.57;;
3293;SDS011;1659;51.470;6.770;2022-09-17T13:42:05;11.13;;;2.40;;
3293;SDS011;1659;51.470;6.770;2022-09-17T13:44:36;13.80;;;8.10;;
3293;SDS011;1659;51.470;6.770;2022-09-17T13:47:09;8.10;;;3.50;;
3293;SDS011;1659;51.470;6.770;2022-09-17T13:49:52;13.43;;;3.67;;
3293;SDS011;1659;51.470;6.770;2022-09-17T13:52:32;9.63;;;3.67;;
3293;SDS011;1659;51.470;6.770;2022-09-17T13:55:02;6.83;;;3.57;;
3293;SDS011;1659;51.470;6.770;2022-09-17T13:57:31;5.30;;;3.03;;
3293;SDS011;1659;51.470;6.770;2022-09-17T13:59:59;9.70;;;3.10;;
3293;SDS011;1659;51.470;6.770;2022-09-17T14:02:31;8.30;;;2.90;;
3293;SDS011;1659;51.470;6.770;2022-09-17T14:08:06;7.43;;;2.90;;
3293;SDS011;1659;51.470;6.770;2022-09-17T14:10:41;3.40;;;2.67;;
3293;SDS011;1659;51.470;6.770;2022-09-17T14:19:25;6.20;;;2.03;;
3293;SDS011;1659;51.470;6.770;2022-09-17T14:21:58;8.10;;;3.40;;
3293;SDS011;1659;51.470;6.770;2022-09-17T14:24:31;6.33;;;2.60;;
3293;SDS011;1659;51.470;6.770;2022-09-17T14:27:05;2.43;;;1.90;;
3293;SDS011;1659;51.470;6.770;2022-09-17T14:29:43;3.73;;;1.57;;
3293;SDS011;1659;51.470;6.770;2022-09-17T14:32:23;3.77;;;1.97;;
3293;SDS011;1659;51.470;6.770;2022-09-17T14:34:58;6.70;;;1.93;;
3293;SDS011;1659;51.470;6.770;2022-09-17T14:37:27;7.13;;;1.80;;
3293;SDS011;1659;51.470;6.770;2022-09-17T14:39:54;10.20;;;2.73;;
3293;SDS011;1659;51.470;6.770;2022-09-17T14:42:21;7.63;;;2.77;;
3293;SDS011;1659;51.470;6.770;2022-09-17T14:44:55;4.93;;;2.87;;
3293;SDS011;1659;51.470;6.770;2022-09-17T14:47:24;7.50;;;2.53;;
3293;SDS011;1659;51.470;6.770;2022-09-17T14:49:51;3.30;;;2.23;;
3293;SDS011;1659;51.470;6.770;2022-09-17T14:52:22;2.87;;;1.67;;
3293;SDS011;1659;51.470;6.770;2022-09-17T14:57:35;7.17;;;1.70;;
3293;SDS011;1659;51.470;6.770;2022-09-17T15:00:02;2.27;;;1.40;;
3293;SDS011;1659;51.470;6.770;2022-09-17T15:02:35;3.13;;;1.50;;
3293;SDS011;1659;51.470;6.770;2022-09-17T15:05:14;1.47;;;1.30;;
3293;SDS011;1659;51.470;6.770;2022-09-17T15:07:44;5.63;;;1.57;;
3293;SDS011;1659;51.470;6.770;2022-09-17T15:10:17;6.17;;;1.43;;
3293;SDS011;1659;51.470;6.770;2022-09-17T15:12:45;3.90;;;1.87;;
3293;SDS011;1659;51.470;6.770;2022-09-17T15:15:15;3.10;;;1.40;;
3293;SDS011;1659;51.470;6.770;2022-09-17T15:17:45;10.70;;;1.77;;
3293;SDS011;1659;51.470;6.770;2022-09-17T15:20:15;1.47;;;1.13;;
3293;SDS011;1659;51.470;6.770;2022-09-17T15:22:46;3.83;;;1.80;;
3293;SDS011;1659;51.470;6.770;2022-09-17T15:25:19;4.23;;;1.70;;
3293;SDS011;1659;51.470;6.770;2022-09-17T15:27:49;3.00;;;1.33;;
3293;SDS011;1659;51.470;6.770;2022-09-17T15:30:19;7.70;;;1.73;;
3293;SDS011;1659;51.470;6.770;2022-09-17T15:32:48;2.30;;;1.07;;
3293;SDS011;1659;51.470;6.770;2022-09-17T15:35:17;3.00;;;1.23;;
3293;SDS011;1659;51.470;6.770;2022-09-17T15:37:48;4.83;;;1.70;;
3293;SDS011;1659;51.470;6.770;2022-09-17T15:40:23;5.30;;;1.50;;
3293;SDS011;1659;51.470;6.770;2022-09-17T15:42:52;3.67;;;1.17;;
3293;SDS011;1659;51.470;6.770;2022-09-17T15:45:26;3.20;;;1.50;;
3293;SDS011;1659;51.470;6.770;2022-09-17T15:47:56;3.00;;;1.40;;
3293;SDS011;1659;51.470;6.770;2022-09-17T15:50:23;4.27;;;1.10;;
3293;SDS011;1659;51.470;6.770;2022-09-17T15:53:09;4.60;;;1.93;;
3293;SDS011;1659;51.470;6.770;2022-09-17T15:55:39;7.00;;;3.20;;
3293;SDS011;1659;51.470;6.770;2022-09-17T15:58:18;1.93;;;1.67;;
3293;SDS011;1659;51.470;6.770;2022-09-17T16:00:48;5.70;;;2.03;;
3293;SDS011;1659;51.470;6.770;2022-09-17T16:03:59;10.93;;;4.17;;
3293;SDS011;1659;51.470;6.770;2022-09-17T16:06:34;3.97;;;2.43;;
3293;SDS011;1659;51.470;6.770;2022-09-17T16:09:11;8.53;;;2.90;;
3293;SDS011;1659;51.470;6.770;2022-09-17T16:12:01;7.10;;;2.27;;
3293;SDS011;1659;51.470;6.770;2022-09-17T16:14:28;4.10;;;1.73;;
3293;SDS011;1659;51.470;6.770;2022-09-17T16:16:55;5.90;;;2.60;;